Urban, Kentucky
Current Conditions -  °F | °C
As of 7:53 PM on Thursday 27 Nov 2014 (Local Time) from KLOZ Reporting Station
Overcast Overcast  
Wind Chill: 22°   Ceiling: 2300
Heat Index: 31°   Visibility: 10mi
Dew Point: 24°   Wind: 10mph
Humidity: 76%   Direction: 260°W
Pressure: 30.39"   Gusts: NA
Location:  37.1101°N, 83.7537°W
Report Text: KLOZ 280053Z AUTO 26009KT 10SM SCT019 BKN023 OVC037 M01/M04 A3039 RMK AO2 SLP299 T10061044
Loading
Personal Weather Stations






























Interactive Weather Map New forecast layout! Learn more

10-Day Weather Forecast

Advertisements
Track Severe Weather on mobile